createdAt,value
2023-05-05T00:00:12.416Z,979.00
2023-05-05T00:01:12.471Z,988.00
2023-05-05T00:02:12.510Z,982.00
2023-05-05T00:03:12.678Z,973.00
2023-05-05T00:04:12.602Z,974.00
2023-05-05T00:05:12.623Z,972.00
2023-05-05T00:06:12.639Z,963.00
2023-05-05T00:07:12.645Z,974.00
2023-05-05T00:08:12.671Z,965.00
2023-05-05T00:09:12.692Z,972.00
2023-05-05T00:10:12.763Z,966.00
2023-05-05T00:11:12.780Z,960.00
2023-05-05T00:12:12.734Z,960.00
2023-05-05T00:13:12.900Z,959.00
2023-05-05T00:14:12.776Z,965.00
2023-05-05T00:15:12.779Z,960.00
2023-05-05T00:16:12.814Z,957.00
2023-05-05T00:17:12.904Z,967.00
2023-05-05T00:18:12.932Z,954.00
2023-05-05T00:19:12.927Z,958.00
2023-05-05T00:20:12.949Z,957.00
2023-05-05T00:21:12.968Z,951.00
2023-05-05T00:22:13.011Z,963.00
2023-05-05T00:23:13.035Z,958.00
2023-05-05T00:24:13.065Z,948.00
2023-05-05T00:25:13.116Z,954.00
2023-05-05T00:26:13.116Z,977.00
2023-05-05T00:27:13.133Z,956.00
2023-05-05T00:28:13.141Z,951.00
2023-05-05T00:29:13.168Z,949.00
2023-05-05T00:30:13.157Z,947.00
2023-05-05T00:31:13.193Z,957.00
2023-05-05T00:32:13.179Z,950.00
2023-05-05T00:33:13.169Z,940.00
2023-05-05T00:34:13.246Z,941.00
2023-05-05T00:35:13.197Z,952.00
2023-05-05T00:36:13.207Z,953.00
2023-05-05T00:37:13.264Z,940.00
2023-05-05T00:38:13.237Z,936.00
2023-05-05T00:39:13.267Z,949.00
2023-05-05T00:40:13.266Z,951.00
2023-05-05T00:41:13.297Z,948.00
2023-05-05T00:42:13.301Z,948.00
2023-05-05T00:43:13.321Z,944.00
2023-05-05T00:44:13.343Z,940.00
2023-05-05T00:45:13.358Z,939.00
2023-05-05T00:46:13.398Z,933.00
2023-05-05T00:47:13.433Z,944.00
2023-05-05T00:48:13.421Z,936.00
2023-05-05T00:49:13.511Z,925.00
2023-05-05T00:50:13.496Z,935.00
2023-05-05T00:51:13.547Z,929.00
2023-05-05T00:52:13.651Z,945.00
2023-05-05T00:53:13.620Z,936.00
2023-05-05T00:54:13.615Z,927.00
2023-05-05T00:55:13.667Z,935.00
2023-05-05T00:56:13.633Z,925.00
2023-05-05T00:57:13.719Z,927.00
2023-05-05T00:58:13.720Z,922.00
2023-05-05T00:59:13.752Z,935.00
2023-05-05T01:00:13.740Z,934.00
2023-05-05T01:01:13.768Z,931.00
2023-05-05T01:02:13.802Z,919.00
2023-05-05T01:03:13.880Z,919.00
2023-05-05T01:04:13.841Z,934.00
2023-05-05T01:05:13.863Z,931.00
2023-05-05T01:06:13.858Z,926.00
2023-05-05T01:07:13.897Z,912.00
2023-05-05T01:08:13.862Z,922.00
2023-05-05T01:09:13.886Z,919.00
2023-05-05T01:10:20.212Z,919.00
2023-05-05T01:11:14.879Z,920.00
2023-05-05T01:12:13.881Z,920.00
2023-05-05T01:13:13.970Z,914.00
2023-05-05T01:14:13.858Z,911.00
2023-05-05T01:15:13.847Z,915.00
2023-05-05T01:16:13.878Z,913.00
2023-05-05T01:17:13.888Z,908.00
2023-05-05T01:18:13.836Z,921.00
2023-05-05T01:19:13.836Z,916.00
2023-05-05T01:20:13.814Z,903.00
2023-05-05T01:21:13.835Z,916.00
2023-05-05T01:22:13.798Z,914.00
2023-05-05T01:23:13.820Z,905.00
2023-05-05T01:24:13.804Z,912.00
2023-05-05T01:25:13.775Z,906.00
2023-05-05T01:26:13.792Z,917.00
2023-05-05T01:27:13.802Z,900.00
2023-05-05T01:28:13.771Z,907.00
2023-05-05T01:29:13.852Z,902.00
2023-05-05T01:30:13.911Z,911.00
2023-05-05T01:31:13.972Z,891.00
2023-05-05T01:32:13.989Z,900.00
2023-05-05T01:33:14.046Z,902.00
2023-05-05T01:34:14.087Z,896.00
2023-05-05T01:35:14.139Z,889.00
2023-05-05T01:36:14.179Z,908.00
2023-05-05T01:37:14.648Z,893.00
2023-05-05T01:38:14.250Z,892.00
2023-05-05T01:39:14.320Z,902.00
2023-05-05T01:40:14.360Z,907.00
2023-05-05T01:41:14.413Z,888.00
2023-05-05T01:42:14.440Z,889.00
2023-05-05T01:43:14.492Z,897.00
2023-05-05T01:44:14.555Z,887.00
2023-05-05T01:45:14.591Z,881.00
2023-05-05T01:46:14.777Z,889.00
2023-05-05T01:47:14.681Z,890.00
2023-05-05T01:48:14.731Z,893.00
2023-05-05T01:49:14.765Z,884.00
2023-05-05T01:50:14.805Z,878.00
2023-05-05T01:51:14.864Z,889.00
2023-05-05T01:52:14.923Z,887.00
2023-05-05T01:53:14.943Z,867.00
2023-05-05T01:54:14.966Z,874.00
2023-05-05T01:55:14.997Z,873.00
2023-05-05T01:56:15.061Z,879.00
2023-05-05T01:57:15.066Z,874.00
2023-05-05T01:58:15.111Z,872.00
2023-05-05T01:59:15.125Z,863.00
2023-05-05T02:00:15.182Z,880.00
2023-05-05T02:01:15.214Z,880.00
2023-05-05T02:02:15.299Z,871.00
2023-05-05T02:03:15.370Z,865.00
2023-05-05T02:04:15.353Z,872.00
2023-05-05T02:05:15.402Z,870.00
2023-05-05T02:06:15.460Z,861.00
2023-05-05T02:07:15.504Z,866.00
2023-05-05T02:08:15.574Z,869.00
2023-05-05T02:09:15.584Z,864.00
2023-05-05T02:10:15.614Z,877.00
2023-05-05T02:11:15.682Z,869.00
2023-05-05T02:12:15.714Z,870.00
2023-05-05T02:13:15.868Z,863.00
2023-05-05T02:14:15.791Z,863.00
2023-05-05T02:15:15.877Z,864.00
2023-05-05T02:16:15.934Z,859.00
2023-05-05T02:17:15.903Z,861.00
2023-05-05T02:18:15.909Z,863.00
2023-05-05T02:19:15.981Z,852.00
2023-05-05T02:20:15.985Z,858.00
2023-05-05T02:21:16.040Z,860.00
2023-05-05T02:22:16.021Z,852.00
2023-05-05T02:23:16.067Z,854.00
2023-05-05T02:24:16.063Z,852.00
2023-05-05T02:25:16.010Z,846.00
2023-05-05T02:26:16.066Z,854.00
2023-05-05T02:27:16.032Z,847.00
2023-05-05T02:28:16.031Z,851.00
2023-05-05T02:29:16.027Z,841.00
2023-05-05T02:30:16.036Z,843.00
2023-05-05T02:31:16.071Z,829.00
2023-05-05T02:32:16.003Z,850.00
2023-05-05T02:33:16.017Z,848.00
2023-05-05T02:34:16.013Z,838.00
2023-05-05T02:35:16.068Z,838.00
2023-05-05T02:36:16.003Z,848.00
2023-05-05T02:37:16.001Z,836.00
2023-05-05T02:38:15.985Z,839.00
2023-05-05T02:39:15.998Z,830.00
2023-05-05T02:40:15.980Z,852.00
2023-05-05T02:41:15.966Z,834.00
2023-05-05T02:42:15.974Z,833.00
2023-05-05T02:43:15.982Z,839.00
2023-05-05T02:44:15.970Z,827.00
2023-05-05T02:45:15.959Z,820.00
2023-05-05T02:46:16.215Z,824.00
2023-05-05T02:47:15.968Z,844.00
2023-05-05T02:48:15.971Z,820.00
2023-05-05T02:49:15.927Z,833.00
2023-05-05T02:50:15.965Z,815.00
2023-05-05T02:51:15.925Z,815.00
2023-05-05T02:52:15.932Z,815.00
2023-05-05T02:53:15.934Z,820.00
2023-05-05T02:54:15.978Z,831.00
2023-05-05T02:55:15.925Z,818.00
2023-05-05T02:56:15.912Z,815.00
2023-05-05T02:57:15.925Z,820.00
2023-05-05T02:58:15.943Z,813.00
2023-05-05T02:59:16.469Z,819.00
2023-05-05T03:00:15.991Z,820.00
2023-05-05T03:01:16.084Z,811.00
2023-05-05T03:02:16.171Z,820.00
2023-05-05T03:03:16.181Z,822.00
2023-05-05T03:04:16.106Z,811.00
2023-05-05T03:05:16.131Z,814.00
2023-05-05T03:06:16.166Z,809.00
2023-05-05T03:07:16.156Z,804.00
2023-05-05T03:08:16.214Z,805.00
2023-05-05T03:09:16.192Z,819.00
2023-05-05T03:10:16.239Z,808.00
2023-05-05T03:11:16.180Z,814.00
2023-05-05T03:12:16.219Z,801.00
2023-05-05T03:13:16.221Z,799.00
2023-05-05T03:14:16.185Z,804.00
2023-05-05T03:15:16.210Z,799.00
2023-05-05T03:16:16.212Z,812.00
2023-05-05T03:17:16.191Z,794.00
2023-05-05T03:18:16.212Z,799.00
2023-05-05T03:19:16.173Z,798.00
2023-05-05T03:20:16.214Z,796.00
2023-05-05T03:21:16.163Z,799.00
2023-05-05T03:22:16.176Z,792.00
2023-05-05T03:23:16.198Z,801.00
2023-05-05T03:24:16.161Z,793.00
2023-05-05T03:25:16.185Z,821.00
2023-05-05T03:26:16.188Z,793.00
2023-05-05T03:27:16.175Z,789.00
2023-05-05T03:28:16.190Z,804.00
2023-05-05T03:29:16.209Z,793.00
2023-05-05T03:30:16.168Z,789.00
2023-05-05T03:31:16.196Z,785.00
2023-05-05T03:32:16.145Z,796.00
2023-05-05T03:33:16.203Z,789.00
2023-05-05T03:34:16.165Z,778.00
2023-05-05T03:35:16.166Z,783.00
2023-05-05T03:36:16.186Z,777.00
2023-05-05T03:37:16.164Z,789.00
2023-05-05T03:38:16.172Z,775.00
2023-05-05T03:39:16.184Z,792.00
2023-05-05T03:40:16.161Z,791.00
2023-05-05T03:41:16.192Z,778.00
2023-05-05T03:42:16.192Z,780.00
2023-05-05T03:43:16.159Z,791.00
2023-05-05T03:44:16.151Z,770.00
2023-05-05T03:45:16.149Z,778.00
2023-05-05T03:46:16.315Z,770.00
2023-05-05T03:47:16.180Z,782.00
2023-05-05T03:48:16.136Z,783.00
2023-05-05T03:49:16.147Z,772.00
2023-05-05T03:50:16.138Z,765.00
2023-05-05T03:51:16.158Z,773.00
2023-05-05T03:52:16.169Z,765.00
2023-05-05T03:53:16.160Z,762.00
2023-05-05T03:54:16.170Z,767.00
2023-05-05T03:55:16.167Z,783.00
2023-05-05T03:56:16.168Z,777.00
2023-05-05T03:57:16.180Z,781.00
2023-05-05T03:58:16.242Z,763.00
2023-05-05T03:59:16.251Z,765.00
2023-05-05T04:00:16.328Z,781.00
2023-05-05T04:01:16.338Z,776.00
2023-05-05T04:02:18.381Z,753.00
2023-05-05T04:03:16.509Z,768.00
2023-05-05T04:04:16.412Z,757.00
2023-05-05T04:05:16.360Z,762.00
2023-05-05T04:06:16.349Z,764.00
2023-05-05T04:07:16.306Z,756.00
2023-05-05T04:08:16.384Z,754.00
2023-05-05T04:09:16.339Z,772.00
2023-05-05T04:10:16.305Z,757.00
2023-05-05T04:11:16.290Z,762.00
2023-05-05T04:12:16.297Z,760.00
2023-05-05T04:13:16.415Z,754.00
2023-05-05T04:14:16.322Z,755.00
2023-05-05T04:15:16.307Z,759.00
2023-05-05T04:16:16.355Z,752.00
2023-05-05T04:17:16.334Z,751.00
2023-05-05T04:18:16.337Z,753.00
2023-05-05T04:19:16.343Z,756.00
2023-05-05T04:20:16.408Z,745.00
2023-05-05T04:21:16.375Z,760.00
2023-05-05T04:22:16.383Z,754.00
2023-05-05T04:23:16.491Z,751.00
2023-05-05T04:24:16.431Z,735.00
2023-05-05T04:25:16.447Z,740.00
2023-05-05T04:26:16.445Z,746.00
2023-05-05T04:27:16.442Z,758.00
2023-05-05T04:28:16.518Z,751.00
2023-05-05T04:29:16.511Z,745.00
2023-05-05T04:30:16.514Z,734.00
2023-05-05T04:31:16.594Z,741.00
2023-05-05T04:32:16.570Z,745.00
2023-05-05T04:33:16.581Z,731.00
2023-05-05T04:34:16.617Z,742.00
2023-05-05T04:35:16.577Z,741.00
2023-05-05T04:36:16.605Z,741.00
2023-05-05T04:37:16.727Z,735.00
2023-05-05T04:38:16.782Z,747.00
2023-05-05T04:39:16.709Z,740.00
2023-05-05T04:40:16.727Z,738.00
2023-05-05T04:41:16.742Z,740.00
2023-05-05T04:42:16.714Z,732.00
2023-05-05T04:43:16.726Z,724.00
2023-05-05T04:44:16.751Z,731.00
2023-05-05T04:45:16.766Z,731.00
2023-05-05T04:46:16.867Z,730.00
2023-05-05T04:47:16.845Z,735.00
2023-05-05T04:48:16.909Z,720.00
2023-05-05T04:49:16.924Z,725.00
2023-05-05T04:50:16.961Z,734.00
2023-05-05T04:51:17.025Z,724.00
2023-05-05T04:52:17.043Z,732.00
2023-05-05T04:53:17.089Z,715.00
2023-05-05T04:54:17.133Z,724.00
2023-05-05T04:55:17.157Z,729.00
2023-05-05T04:56:17.256Z,722.00
2023-05-05T04:57:17.225Z,712.00
2023-05-05T04:58:17.305Z,715.00
2023-05-05T04:59:17.331Z,718.00
2023-05-05T05:00:17.365Z,706.00
2023-05-05T05:01:17.324Z,700.00
2023-05-05T05:02:17.401Z,713.00
2023-05-05T05:03:17.545Z,722.00
2023-05-05T05:04:17.378Z,710.00
2023-05-05T05:05:17.379Z,710.00
2023-05-05T05:06:17.354Z,708.00
2023-05-05T05:07:17.354Z,707.00
2023-05-05T05:08:17.379Z,723.00
2023-05-05T05:09:17.370Z,709.00
2023-05-05T05:10:17.345Z,703.00
2023-05-05T05:11:17.344Z,695.00
2023-05-05T05:12:17.330Z,709.00
2023-05-05T05:13:17.395Z,704.00
2023-05-05T05:14:17.338Z,700.00
2023-05-05T05:15:17.332Z,696.00
2023-05-05T05:16:17.354Z,695.00
2023-05-05T05:17:17.310Z,695.00
2023-05-05T05:18:17.462Z,697.00
2023-05-05T05:19:17.318Z,698.00
2023-05-05T05:20:17.313Z,685.00
2023-05-05T05:21:17.369Z,697.00
2023-05-05T05:22:17.387Z,685.00
2023-05-05T05:23:17.390Z,694.00
2023-05-05T05:24:17.393Z,691.00
2023-05-05T05:25:17.401Z,687.00
2023-05-05T05:26:17.439Z,688.00
2023-05-05T05:27:17.449Z,691.00
2023-05-05T05:28:17.424Z,684.00
2023-05-05T05:29:17.503Z,693.00
2023-05-05T05:30:17.436Z,698.00
2023-05-05T05:31:17.738Z,681.00
2023-05-05T05:32:17.466Z,689.00
2023-05-05T05:33:17.581Z,695.00
2023-05-05T05:34:17.665Z,687.00
2023-05-05T05:35:17.444Z,662.00
2023-05-05T05:36:17.459Z,666.00
2023-05-05T05:37:17.448Z,660.00
2023-05-05T05:38:17.459Z,663.00
2023-05-05T05:39:17.581Z,669.00
2023-05-05T05:40:17.466Z,686.00
2023-05-05T05:41:17.458Z,689.00
2023-05-05T05:42:17.534Z,717.00
2023-05-05T05:43:17.651Z,754.00
2023-05-05T05:44:17.557Z,806.00
2023-05-05T05:45:17.633Z,867.00
2023-05-05T05:46:18.315Z,872.00
2023-05-05T05:47:17.676Z,866.00
2023-05-05T05:48:17.676Z,906.00
2023-05-05T05:49:17.757Z,921.00
2023-05-05T05:50:17.804Z,1002.00
2023-05-05T05:51:17.933Z,982.00
2023-05-05T05:52:18.045Z,1009.00
2023-05-05T05:53:17.987Z,1019.00
2023-05-05T05:54:18.049Z,1078.00
2023-05-05T05:55:18.110Z,1081.00
2023-05-05T05:56:18.118Z,1119.00
2023-05-05T05:57:18.161Z,1150.00
2023-05-05T05:58:18.224Z,1163.00
2023-05-05T05:59:18.239Z,1217.00
2023-05-05T06:00:18.321Z,1264.00
2023-05-05T06:01:18.417Z,1279.00
2023-05-05T06:02:18.413Z,1301.00
2023-05-05T06:03:18.671Z,1337.00
2023-05-05T06:04:18.506Z,1383.00
2023-05-05T06:05:18.513Z,1419.00
2023-05-05T06:06:18.728Z,1431.00
2023-05-05T06:07:18.875Z,1432.00
2023-05-05T06:08:19.223Z,1464.00
2023-05-05T06:09:18.633Z,1484.00
2023-05-05T06:10:28.098Z,1512.00
2023-05-05T06:11:19.635Z,1513.00
2023-05-05T06:12:18.585Z,1517.00
2023-05-05T06:13:18.613Z,1526.00
2023-05-05T06:14:20.119Z,1529.00
2023-05-05T06:15:18.592Z,1507.00
2023-05-05T06:16:18.591Z,1489.00
2023-05-05T06:17:18.601Z,1474.00
2023-05-05T06:18:18.635Z,1451.00
2023-05-05T06:19:18.611Z,1419.00
2023-05-05T06:20:18.558Z,1346.00
2023-05-05T06:21:18.552Z,1284.00
2023-05-05T06:22:18.508Z,1232.00
2023-05-05T06:23:18.604Z,1209.00
2023-05-05T06:24:18.507Z,1245.00
2023-05-05T06:25:18.555Z,1209.00
2023-05-05T06:26:18.531Z,1204.00
2023-05-05T06:27:18.515Z,1182.00
2023-05-05T06:28:18.848Z,1176.00
2023-05-05T06:29:18.598Z,1157.00
2023-05-05T06:30:18.473Z,1136.00
2023-05-05T06:31:18.476Z,1107.00
2023-05-05T06:32:18.459Z,1089.00
2023-05-05T06:33:18.497Z,1077.00
2023-05-05T06:34:18.456Z,1065.00
2023-05-05T06:35:18.432Z,1004.00
2023-05-05T06:36:18.463Z,678.00
2023-05-05T06:37:18.445Z,595.00
2023-05-05T06:38:18.829Z,605.00
2023-05-05T06:39:18.526Z,599.00
2023-05-05T06:40:18.544Z,616.00
2023-05-05T06:41:18.593Z,588.00
2023-05-05T06:42:18.644Z,575.00
2023-05-05T06:43:18.685Z,548.00
2023-05-05T06:44:18.900Z,536.00
2023-05-05T06:45:18.739Z,522.00
2023-05-05T06:46:18.902Z,500.00
2023-05-05T06:47:19.765Z,500.00
2023-05-05T06:48:18.906Z,500.00
2023-05-05T06:49:18.977Z,507.00
2023-05-05T06:50:21.769Z,510.00
2023-05-05T06:51:19.015Z,500.00
2023-05-05T06:52:19.031Z,502.00
2023-05-05T06:53:19.150Z,506.00
2023-05-05T06:54:18.995Z,505.00
2023-05-05T06:55:18.985Z,501.00
2023-05-05T06:56:18.956Z,506.00
2023-05-05T06:57:18.995Z,500.00
2023-05-05T06:58:18.944Z,507.00
2023-05-05T06:59:18.962Z,509.00
2023-05-05T07:00:19.030Z,501.00
2023-05-05T07:01:19.039Z,500.00
2023-05-05T07:02:18.959Z,500.00
2023-05-05T07:03:19.120Z,498.00
2023-05-05T07:04:19.070Z,502.00
2023-05-05T07:05:18.944Z,509.00
2023-05-05T07:06:18.894Z,502.00
2023-05-05T07:07:18.906Z,503.00
2023-05-05T07:08:18.977Z,500.00
2023-05-05T07:09:19.133Z,504.00
2023-05-05T07:10:18.976Z,504.00
2023-05-05T07:11:18.948Z,506.00
2023-05-05T07:12:19.072Z,512.00
2023-05-05T07:13:18.899Z,501.00
2023-05-05T07:14:20.575Z,488.00
2023-05-05T07:15:27.490Z,472.00
2023-05-05T07:16:20.265Z,464.00
2023-05-05T07:17:19.107Z,459.00
2023-05-05T07:18:19.108Z,439.00
2023-05-05T07:19:19.138Z,416.00
2023-05-05T07:20:19.042Z,400.00
2023-05-05T07:21:19.075Z,435.00
2023-05-05T07:22:19.054Z,476.00
2023-05-05T07:23:19.007Z,500.00
2023-05-05T07:24:19.027Z,503.00
2023-05-05T07:25:19.163Z,500.00
2023-05-05T07:26:19.132Z,502.00
2023-05-05T07:27:19.120Z,500.00
2023-05-05T07:28:19.156Z,505.00
2023-05-05T07:29:19.272Z,510.00
2023-05-05T07:30:19.705Z,517.00
2023-05-05T07:31:19.335Z,543.00
2023-05-05T07:32:19.437Z,537.00
2023-05-05T07:33:19.283Z,539.00
2023-05-05T07:34:19.780Z,569.00
2023-05-05T07:35:19.334Z,543.00
2023-05-05T07:36:19.337Z,561.00
2023-05-05T07:37:19.354Z,580.00
2023-05-05T07:38:19.437Z,655.00
2023-05-05T07:39:19.426Z,788.00
2023-05-05T07:40:19.483Z,813.00
2023-05-05T07:41:19.601Z,867.00
2023-05-05T07:42:19.926Z,943.00
2023-05-05T07:43:19.754Z,954.00
2023-05-05T07:44:19.761Z,969.00
2023-05-05T07:45:19.826Z,1017.00
2023-05-05T07:46:19.867Z,1032.00
2023-05-05T07:47:20.081Z,1044.00
2023-05-05T07:48:19.896Z,1152.00
2023-05-05T07:49:19.924Z,1253.00
2023-05-05T07:50:20.065Z,1176.00
2023-05-05T07:51:20.139Z,1147.00
2023-05-05T07:52:25.231Z,1068.00
2023-05-05T07:53:20.984Z,1040.00
2023-05-05T07:54:20.036Z,1070.00
2023-05-05T07:55:20.008Z,1070.00
2023-05-05T07:56:21.651Z,1075.00
2023-05-05T07:57:20.199Z,1069.00
2023-05-05T07:58:19.968Z,1102.00
2023-05-05T07:59:19.965Z,1123.00
2023-05-05T08:00:19.945Z,1108.00
2023-05-05T08:01:19.955Z,1124.00
2023-05-05T08:02:19.943Z,1135.00
2023-05-05T08:03:20.118Z,1176.00
2023-05-05T08:04:19.998Z,1217.00
2023-05-05T08:05:19.953Z,1239.00
2023-05-05T08:06:19.888Z,1276.00
2023-05-05T08:07:19.902Z,1319.00
2023-05-05T08:08:19.886Z,1377.00
2023-05-05T08:09:19.904Z,1407.00
2023-05-05T08:10:19.864Z,1440.00
2023-05-05T08:11:19.853Z,1477.00
2023-05-05T08:12:19.881Z,1506.00
2023-05-05T08:13:20.009Z,1548.00
2023-05-05T08:14:19.866Z,1587.00
2023-05-05T08:15:19.900Z,1602.00
2023-05-05T08:16:19.873Z,1665.00
2023-05-05T08:17:19.830Z,1683.00
2023-05-05T08:18:19.826Z,1704.00
2023-05-05T08:19:28.946Z,1742.00
2023-05-05T08:20:20.862Z,1745.00
2023-05-05T08:21:19.839Z,1759.00
2023-05-05T08:22:19.787Z,1791.00
2023-05-05T08:23:19.855Z,1850.00
2023-05-05T08:24:19.776Z,1927.00
2023-05-05T08:25:19.798Z,1965.00
2023-05-05T08:26:19.767Z,2026.00
2023-05-05T08:27:19.753Z,2032.00
2023-05-05T08:28:19.749Z,2041.00
2023-05-05T08:29:20.085Z,2031.00
2023-05-05T08:30:19.837Z,2024.00
2023-05-05T08:31:19.859Z,2025.00
2023-05-05T08:32:19.843Z,2030.00
2023-05-05T08:33:19.954Z,2042.00
2023-05-05T08:34:19.824Z,2047.00
2023-05-05T08:35:19.827Z,2040.00
2023-05-05T08:36:19.844Z,2055.00
2023-05-05T08:37:19.821Z,2058.00
2023-05-05T08:38:19.834Z,2067.00
2023-05-05T08:39:19.835Z,2057.00
2023-05-05T08:40:19.854Z,2059.00
2023-05-05T08:41:19.863Z,1948.00
2023-05-05T08:42:32.829Z,1949.00
2023-05-05T08:43:20.879Z,1950.00
2023-05-05T08:44:20.292Z,1957.00
2023-05-05T08:45:20.005Z,1979.00
2023-05-05T08:46:19.932Z,1987.00
2023-05-05T08:47:19.847Z,2014.00
2023-05-05T08:48:19.827Z,2019.00
2023-05-05T08:49:19.826Z,2019.00
2023-05-05T08:50:19.826Z,2014.00
2023-05-05T08:51:19.825Z,2002.00
2023-05-05T08:52:19.824Z,1991.00
2023-05-05T08:53:19.812Z,1974.00
2023-05-05T08:54:19.797Z,1955.00
2023-05-05T08:55:19.779Z,1924.00
2023-05-05T08:56:19.781Z,1861.00
2023-05-05T08:57:19.780Z,1873.00
2023-05-05T08:58:19.779Z,1839.00
2023-05-05T08:59:19.809Z,1832.00
2023-05-05T09:00:19.764Z,1823.00
2023-05-05T09:01:19.885Z,1805.00
2023-05-05T09:02:19.795Z,1784.00
2023-05-05T09:03:19.731Z,1727.00
2023-05-05T09:04:19.749Z,1737.00
2023-05-05T09:05:19.909Z,1731.00
2023-05-05T09:06:19.891Z,1723.00
2023-05-05T09:07:20.041Z,1694.00
2023-05-05T09:08:19.940Z,1704.00
2023-05-05T09:09:20.042Z,1698.00
2023-05-05T09:10:20.068Z,1710.00
2023-05-05T09:11:20.171Z,1650.00
2023-05-05T09:12:20.239Z,1679.00
2023-05-05T09:13:20.422Z,1682.00
2023-05-05T09:14:20.327Z,1694.00
2023-05-05T09:15:20.404Z,1605.00
2023-05-05T09:16:20.603Z,1613.00
2023-05-05T09:17:20.612Z,1542.00
2023-05-05T09:18:20.576Z,1559.00
2023-05-05T09:19:20.642Z,1602.00
2023-05-05T09:20:20.708Z,1554.00
2023-05-05T09:21:20.758Z,1535.00
2023-05-05T09:22:20.833Z,1570.00
2023-05-05T09:23:20.916Z,1581.00
2023-05-05T09:24:22.306Z,1628.00
2023-05-05T09:25:20.996Z,1636.00
2023-05-05T09:26:21.077Z,1651.00
2023-05-05T09:27:21.134Z,1656.00
2023-05-05T09:28:21.164Z,1664.00
2023-05-05T09:29:21.302Z,1643.00
2023-05-05T09:30:21.278Z,1646.00
2023-05-05T09:31:21.371Z,1641.00
2023-05-05T09:32:21.362Z,1581.00
2023-05-05T09:33:21.450Z,1588.00
2023-05-05T09:34:21.831Z,1563.00
2023-05-05T09:35:21.489Z,1511.00
2023-05-05T09:36:21.493Z,1219.00
2023-05-05T09:37:21.557Z,1084.00
2023-05-05T09:38:21.705Z,1044.00
2023-05-05T09:39:21.689Z,1060.00
2023-05-05T09:40:21.840Z,1127.00
2023-05-05T09:41:21.804Z,1104.00
2023-05-05T09:42:21.866Z,1092.00
2023-05-05T09:43:22.821Z,1118.00
2023-05-05T09:44:22.362Z,1111.00
2023-05-05T09:45:22.089Z,1045.00
2023-05-05T09:46:22.131Z,1079.00
2023-05-05T09:47:29.460Z,1102.00
2023-05-05T09:48:23.195Z,1085.00
2023-05-05T09:49:22.391Z,1069.00
2023-05-05T09:50:22.125Z,1070.00
2023-05-05T09:51:22.149Z,1081.00
2023-05-05T09:52:22.110Z,1050.00
2023-05-05T09:53:22.157Z,1031.00
2023-05-05T09:54:22.105Z,1025.00
2023-05-05T09:55:22.118Z,1026.00
2023-05-05T09:56:22.115Z,1036.00
2023-05-05T09:57:22.081Z,1035.00
2023-05-05T09:58:22.158Z,1016.00
2023-05-05T09:59:22.071Z,955.00
2023-05-05T10:00:22.059Z,936.00
2023-05-05T10:01:22.143Z,914.00
2023-05-05T10:02:22.043Z,958.00
2023-05-05T10:03:22.047Z,952.00
2023-05-05T10:04:22.094Z,936.00
2023-05-05T10:05:22.228Z,940.00
2023-05-05T10:06:22.015Z,937.00
2023-05-05T10:07:22.035Z,910.00
2023-05-05T10:08:21.998Z,897.00
2023-05-05T10:09:21.979Z,885.00
2023-05-05T10:10:22.026Z,877.00
2023-05-05T10:11:22.008Z,855.00
2023-05-05T10:12:21.962Z,851.00
2023-05-05T10:13:21.944Z,843.00
2023-05-05T10:14:21.955Z,831.00
2023-05-05T10:15:22.863Z,806.00
2023-05-05T10:16:22.077Z,799.00
2023-05-05T10:17:21.957Z,801.00
2023-05-05T10:18:22.099Z,767.00
2023-05-05T10:19:21.936Z,781.00
2023-05-05T10:20:22.824Z,766.00
2023-05-05T10:21:22.027Z,735.00
2023-05-05T10:22:21.922Z,734.00
2023-05-05T10:23:21.944Z,684.00
2023-05-05T10:24:22.023Z,676.00
2023-05-05T10:25:21.930Z,695.00
2023-05-05T10:26:21.958Z,674.00
2023-05-05T10:27:22.054Z,652.00
2023-05-05T10:28:22.389Z,574.00
2023-05-05T10:29:22.020Z,604.00
2023-05-05T10:30:21.976Z,634.00
2023-05-05T10:31:26.284Z,652.00
2023-05-05T10:32:51.102Z,652.00
2023-05-05T10:34:21.992Z,662.00
2023-05-05T10:35:21.939Z,722.00
2023-05-05T10:36:21.953Z,819.00
2023-05-05T10:37:22.017Z,946.00
2023-05-05T10:38:22.717Z,1128.00
2023-05-05T10:39:21.915Z,1152.00
2023-05-05T10:40:21.905Z,1153.00
2023-05-05T10:41:21.907Z,1164.00
2023-05-05T10:42:21.932Z,1192.00
2023-05-05T10:43:22.378Z,1224.00
2023-05-05T10:44:22.386Z,1238.00
2023-05-05T10:45:22.001Z,1259.00
2023-05-05T10:46:22.091Z,1266.00
2023-05-05T10:47:22.864Z,1297.00
2023-05-05T10:48:22.179Z,1314.00
2023-05-05T10:49:22.400Z,1338.00
2023-05-05T10:50:22.836Z,1349.00
2023-05-05T10:51:35.177Z,1343.00
2023-05-05T10:52:23.226Z,1344.00
2023-05-05T10:53:22.356Z,1345.00
2023-05-05T10:54:22.268Z,1361.00
2023-05-05T10:55:22.211Z,1392.00
2023-05-05T10:56:22.203Z,1451.00
2023-05-05T10:57:22.246Z,1467.00
2023-05-05T10:58:22.251Z,1482.00
2023-05-05T10:59:22.173Z,1521.00
2023-05-05T11:00:22.174Z,1552.00
2023-05-05T11:01:22.225Z,1580.00
2023-05-05T11:02:22.164Z,1593.00
2023-05-05T11:03:22.427Z,1608.00
2023-05-05T11:04:22.153Z,1647.00
2023-05-05T11:05:22.207Z,1374.00
2023-05-05T11:06:22.190Z,1199.00
2023-05-05T11:07:22.224Z,801.00
2023-05-05T11:08:22.274Z,635.00
2023-05-05T11:09:22.934Z,609.00
2023-05-05T11:10:22.342Z,578.00
2023-05-05T11:11:22.361Z,782.00
2023-05-05T11:12:22.414Z,587.00
2023-05-05T11:13:22.575Z,570.00
2023-05-05T11:14:22.490Z,579.00
2023-05-05T11:15:22.509Z,558.00
2023-05-05T11:16:22.625Z,493.00
2023-05-05T11:17:22.493Z,563.00
2023-05-05T11:18:22.542Z,634.00
2023-05-05T11:19:22.519Z,615.00
2023-05-05T11:20:22.567Z,673.00
2023-05-05T11:21:22.565Z,773.00
2023-05-05T11:22:22.565Z,719.00
2023-05-05T11:23:22.907Z,710.00
2023-05-05T11:24:22.608Z,748.00
2023-05-05T11:25:22.683Z,730.00
2023-05-05T11:26:22.666Z,791.00
2023-05-05T11:27:22.671Z,770.00
2023-05-05T11:28:22.723Z,835.00
2023-05-05T11:29:22.770Z,839.00
2023-05-05T11:30:22.820Z,865.00
2023-05-05T11:31:22.869Z,900.00
2023-05-05T11:32:23.130Z,903.00
2023-05-05T11:33:22.973Z,910.00
2023-05-05T11:34:22.993Z,903.00
2023-05-05T11:35:23.080Z,920.00
2023-05-05T11:36:23.097Z,961.00
2023-05-05T11:37:23.122Z,971.00
2023-05-05T11:38:23.192Z,999.00
2023-05-05T11:39:23.375Z,1015.00
2023-05-05T11:40:23.289Z,1002.00
2023-05-05T11:41:23.402Z,1022.00
2023-05-05T11:42:23.366Z,1019.00
2023-05-05T11:43:23.484Z,1040.00
2023-05-05T11:44:23.485Z,1048.00
2023-05-05T11:45:23.657Z,1046.00
2023-05-05T11:46:23.636Z,1044.00
2023-05-05T11:47:23.670Z,1065.00
2023-05-05T11:48:23.723Z,1076.00
2023-05-05T11:49:23.782Z,1089.00
2023-05-05T11:50:23.804Z,1099.00
2023-05-05T11:51:23.873Z,1107.00
2023-05-05T11:52:23.918Z,1104.00
2023-05-05T11:53:23.967Z,1111.00
2023-05-05T11:54:24.037Z,1115.00
2023-05-05T11:55:24.107Z,1114.00
2023-05-05T11:56:24.159Z,1125.00
2023-05-05T11:57:24.238Z,1143.00
2023-05-05T11:58:24.234Z,1163.00
2023-05-05T11:59:24.293Z,1152.00
2023-05-05T12:00:24.341Z,1166.00
2023-05-05T12:01:24.407Z,1162.00
2023-05-05T12:02:24.512Z,1181.00
2023-05-05T12:03:24.660Z,1174.00
2023-05-05T12:04:24.638Z,1183.00
2023-05-05T12:05:24.689Z,1190.00
2023-05-05T12:06:24.759Z,1199.00
2023-05-05T12:07:24.787Z,1206.00
2023-05-05T12:08:24.876Z,1200.00
2023-05-05T12:09:24.945Z,1218.00
2023-05-05T12:10:24.980Z,1221.00
2023-05-05T12:11:25.029Z,1206.00
2023-05-05T12:12:25.090Z,1218.00
2023-05-05T12:13:25.375Z,1219.00
2023-05-05T12:14:25.212Z,1233.00
2023-05-05T12:15:25.256Z,1219.00
2023-05-05T12:16:25.394Z,1221.00
2023-05-05T12:17:25.385Z,1224.00
2023-05-05T12:18:25.433Z,1232.00
2023-05-05T12:19:25.455Z,1221.00
2023-05-05T12:20:25.542Z,1231.00
2023-05-05T12:21:25.598Z,1239.00